Karmel — 9HA2896 — position and weather

sailwx.info

Track history (hours):
 
Tides and Currents Weather Stations Pressure Air Temp Water Temp Dewpoint Dewpoint Depression Visibility Wind Speed Wind Dir Waves Ship Positions

Karmel

Last reported at 2014-Dec-17 20:32 UTC. Time now 2014-Dec-20 22:15 UTC.
Position N 55°02' E 019°16'.

Length 90 m; draft 4.9 m.

Type: Cargo ship. MMSI: 256632000.

Date/timePositionNaut miles runAvg speedWind from/ knotsBaromVisibWave heightAir tempDewpointWater temp
2014-Dec-17 20:32N 55°02' E 019°16'1010.4
2014-Dec-17 19:33N 54°53' E 019°09'1110.7
2014-Dec-17 18:33N 54°43' E 019°00'1110.7
2014-Dec-17 17:33N 54°34' E 018°52'1110.7
2014-Dec-17 16:34N 54°26' E 018°39'3 2.6
2014-Dec-17 15:33N 54°23' E 018°40'0 0.0
2014-Dec-17 14:33N 54°23' E 018°40'0 0.0
2014-Dec-17 13:31N 54°23' E 018°40'0 0.0
2014-Dec-17 12:31N 54°23' E 018°40'0 0.0
2014-Dec-17 11:31N 54°23' E 018°40'0 0.0
2014-Dec-17 10:31N 54°23' E 018°40'0 0.0
2014-Dec-17 09:31N 54°23' E 018°40'0 0.0
2014-Dec-17 08:31N 54°23' E 018°40'0 0.0
2014-Dec-17 07:31N 54°23' E 018°40'0 0.0
2014-Dec-17 06:31N 54°23' E 018°40'0 0.0
2014-Dec-17 05:31N 54°23' E 018°40'0 0.0
2014-Dec-17 04:28N 54°23' E 018°40'0 0.0
2014-Dec-17 03:31N 54°23' E 018°40'0 0.0
2014-Dec-17 02:31N 54°23' E 018°40'0 0.0
2014-Dec-17 01:33N 54°23' E 018°40'0 0.0
2014-Dec-17 00:33N 54°23' E 018°40'0 0.0
2014-Dec-16 23:33N 54°23' E 018°40'0 0.0
2014-Dec-16 22:33N 54°23' E 018°40'0 0.0
2014-Dec-16 21:33N 54°23' E 018°40'0 0.0
2014-Dec-16 20:33N 54°23' E 018°40'0 0.0
2014-Dec-16 19:33N 54°23' E 018°40'0 0.0
2014-Dec-16 18:33N 54°23' E 018°40'0 0.0
2014-Dec-16 17:33N 54°23' E 018°40'0 0.0
2014-Dec-16 16:33N 54°23' E 018°40'0 0.0
2014-Dec-16 15:33N 54°23' E 018°40'0 0.0
2014-Dec-16 14:33N 54°23' E 018°40'0 0.0
2014-Dec-16 13:33N 54°23' E 018°40'4 4.0
2014-Dec-16 12:34N 54°27' E 018°41'1010.2
2014-Dec-16 11:34N 54°35' E 018°52'1010.4
2014-Dec-16 10:33N 54°45' E 018°58'1010.0
2014-Dec-16 09:33N 54°52' E 018°45'1010.2
2014-Dec-16 08:33N 54°55' E 018°29'10910.9
2014-Dec-15 22:34N 54°51' E 015°18'1111.3
2014-Dec-15 21:33N 54°52' E 014°59'1111.1
2014-Dec-15 20:34N 54°53' E 014°40'1111.3
2014-Dec-15 19:34N 54°54' E 014°20'1111.2
2014-Dec-15 18:33N 54°55' E 014°01'1110.9
2014-Dec-15 17:33N 54°56' E 013°42'2711.0
2014-Dec-15 15:05N 55°07' E 012°59'711.4
2014-Dec-15 14:31N 55°08' E 012°47'9 9.9
2014-Dec-15 13:33N 55°13' E 012°34'1110.6
2014-Dec-15 12:33N 55°24' E 012°31'10 9.6
2014-Dec-15 11:34N 55°33' E 012°29'3 2.5
2014-Dec-15 10:33N 55°36' E 012°29'0 0.0
2014-Dec-15 09:33N 55°36' E 012°29'0 0.0
2014-Dec-15 08:33N 55°36' E 012°29'0 0.0
2014-Dec-15 07:33N 55°36' E 012°29'0 0.0
2014-Dec-15 06:33N 55°36' E 012°29'0 0.0
2014-Dec-15 05:33N 55°36' E 012°29'0 0.0
2014-Dec-15 04:33N 55°36' E 012°29'0 0.0
2014-Dec-15 03:33N 55°36' E 012°29'0 0.0
2014-Dec-15 02:33N 55°36' E 012°29'0 0.0
2014-Dec-15 01:33N 55°36' E 012°29'0 0.0
2014-Dec-15 00:33N 55°36' E 012°29'0 0.0
2014-Dec-14 23:33N 55°36' E 012°29'0 0.0
2014-Dec-14 22:33N 55°36' E 012°29'0 0.0
2014-Dec-14 21:33N 55°36' E 012°29'0 0.0
2014-Dec-14 20:33N 55°36' E 012°29'0 0.0
2014-Dec-14 19:33N 55°36' E 012°29'0 0.0
2014-Dec-14 18:30N 55°36' E 012°29'0 0.0
2014-Dec-14 17:33N 55°36' E 012°29'0 0.0
2014-Dec-14 16:33N 55°36' E 012°29'0 0.0
2014-Dec-14 15:33N 55°36' E 012°29'0 0.0
2014-Dec-14 14:33N 55°36' E 012°29'0 0.0
2014-Dec-14 13:33N 55°36' E 012°29'0 0.0
2014-Dec-14 12:33N 55°36' E 012°29'0 0.0
2014-Dec-14 11:33N 55°36' E 012°29'0 0.0
2014-Dec-14 10:33N 55°36' E 012°29'0 0.0
2014-Dec-14 09:33N 55°36' E 012°29'0 0.0
2014-Dec-14 08:33N 55°36' E 012°29'2 1.6
2014-Dec-14 07:33N 55°34' E 012°29'8 7.9
2014-Dec-14 06:33N 55°27' E 012°33'9 8.7
2014-Dec-14 05:33N 55°19' E 012°40'9 8.8
2014-Dec-14 04:33N 55°16' E 012°54'34 8.6
2014-Dec-14 00:33N 55°14' E 013°54'8 7.7
2014-Dec-13 23:33N 55°14' E 014°08'7 6.9
2014-Dec-13 22:33N 55°16' E 014°19'8 7.8
2014-Dec-13 21:33N 55°22' E 014°28'8 8.0
2014-Dec-13 20:33N 55°28' E 014°38'8 8.0
2014-Dec-13 19:33N 55°32' E 014°50'8 7.6
2014-Dec-13 18:33N 55°36' E 015°01'7 7.3
2014-Dec-13 17:33N 55°39' E 015°13'125 5.0
2014-Dec-12 16:26N 57°19' E 017°27'  
Track history (hours):
 
Tides and Currents Weather Stations Pressure Air Temp Water Temp Dewpoint Dewpoint Depression Visibility Wind Speed Wind Dir Waves Ship Positions

Karmel

Last reported at 2014-Dec-17 20:32 UTC. Time now 2014-Dec-20 22:15 UTC.
Position N 55°02' E 019°16'.

Length 90 m; draft 4.9 m.

Type: Cargo ship. MMSI: 256632000.

Date/timePositionNaut miles runAvg speedWind from/ knotsBaromVisibWave heightAir tempDewpointWater temp
2014-Dec-17 20:32N 55°02' E 019°16'1010.4
2014-Dec-17 19:33N 54°53' E 019°09'1110.7
2014-Dec-17 18:33N 54°43' E 019°00'1110.7
2014-Dec-17 17:33N 54°34' E 018°52'1110.7
2014-Dec-17 16:34N 54°26' E 018°39'3 2.6
2014-Dec-17 15:33N 54°23' E 018°40'0 0.0
2014-Dec-17 14:33N 54°23' E 018°40'0 0.0
2014-Dec-17 13:31N 54°23' E 018°40'0 0.0
2014-Dec-17 12:31N 54°23' E 018°40'0 0.0
2014-Dec-17 11:31N 54°23' E 018°40'0 0.0
2014-Dec-17 10:31N 54°23' E 018°40'0 0.0
2014-Dec-17 09:31N 54°23' E 018°40'0 0.0
2014-Dec-17 08:31N 54°23' E 018°40'0 0.0
2014-Dec-17 07:31N 54°23' E 018°40'0 0.0
2014-Dec-17 06:31N 54°23' E 018°40'0 0.0
2014-Dec-17 05:31N 54°23' E 018°40'0 0.0
2014-Dec-17 04:28N 54°23' E 018°40'0 0.0
2014-Dec-17 03:31N 54°23' E 018°40'0 0.0
2014-Dec-17 02:31N 54°23' E 018°40'0 0.0
2014-Dec-17 01:33N 54°23' E 018°40'0 0.0
2014-Dec-17 00:33N 54°23' E 018°40'0 0.0
2014-Dec-16 23:33N 54°23' E 018°40'0 0.0
2014-Dec-16 22:33N 54°23' E 018°40'0 0.0
2014-Dec-16 21:33N 54°23' E 018°40'0 0.0
2014-Dec-16 20:33N 54°23' E 018°40'0 0.0
2014-Dec-16 19:33N 54°23' E 018°40'0 0.0
2014-Dec-16 18:33N 54°23' E 018°40'0 0.0
2014-Dec-16 17:33N 54°23' E 018°40'0 0.0
2014-Dec-16 16:33N 54°23' E 018°40'0 0.0
2014-Dec-16 15:33N 54°23' E 018°40'0 0.0
2014-Dec-16 14:33N 54°23' E 018°40'0 0.0
2014-Dec-16 13:33N 54°23' E 018°40'4 4.0
2014-Dec-16 12:34N 54°27' E 018°41'1010.2
2014-Dec-16 11:34N 54°35' E 018°52'1010.4
2014-Dec-16 10:33N 54°45' E 018°58'1010.0
2014-Dec-16 09:33N 54°52' E 018°45'1010.2
2014-Dec-16 08:33N 54°55' E 018°29'10910.9
2014-Dec-15 22:34N 54°51' E 015°18'1111.3
2014-Dec-15 21:33N 54°52' E 014°59'1111.1
2014-Dec-15 20:34N 54°53' E 014°40'1111.3
2014-Dec-15 19:34N 54°54' E 014°20'1111.2
2014-Dec-15 18:33N 54°55' E 014°01'1110.9
2014-Dec-15 17:33N 54°56' E 013°42'2711.0
2014-Dec-15 15:05N 55°07' E 012°59'711.4
2014-Dec-15 14:31N 55°08' E 012°47'9 9.9
2014-Dec-15 13:33N 55°13' E 012°34'1110.6
2014-Dec-15 12:33N 55°24' E 012°31'10 9.6
2014-Dec-15 11:34N 55°33' E 012°29'3 2.5
2014-Dec-15 10:33N 55°36' E 012°29'0 0.0
2014-Dec-15 09:33N 55°36' E 012°29'0 0.0
2014-Dec-15 08:33N 55°36' E 012°29'0 0.0
2014-Dec-15 07:33N 55°36' E 012°29'0 0.0
2014-Dec-15 06:33N 55°36' E 012°29'0 0.0
2014-Dec-15 05:33N 55°36' E 012°29'0 0.0
2014-Dec-15 04:33N 55°36' E 012°29'0 0.0
2014-Dec-15 03:33N 55°36' E 012°29'0 0.0
2014-Dec-15 02:33N 55°36' E 012°29'0 0.0
2014-Dec-15 01:33N 55°36' E 012°29'0 0.0
2014-Dec-15 00:33N 55°36' E 012°29'0 0.0
2014-Dec-14 23:33N 55°36' E 012°29'0 0.0
2014-Dec-14 22:33N 55°36' E 012°29'0 0.0
2014-Dec-14 21:33N 55°36' E 012°29'0 0.0
2014-Dec-14 20:33N 55°36' E 012°29'0 0.0
2014-Dec-14 19:33N 55°36' E 012°29'0 0.0
2014-Dec-14 18:30N 55°36' E 012°29'0 0.0
2014-Dec-14 17:33N 55°36' E 012°29'0 0.0
2014-Dec-14 16:33N 55°36' E 012°29'0 0.0
2014-Dec-14 15:33N 55°36' E 012°29'0 0.0
2014-Dec-14 14:33N 55°36' E 012°29'0 0.0
2014-Dec-14 13:33N 55°36' E 012°29'0 0.0
2014-Dec-14 12:33N 55°36' E 012°29'0 0.0
2014-Dec-14 11:33N 55°36' E 012°29'0 0.0
2014-Dec-14 10:33N 55°36' E 012°29'0 0.0
2014-Dec-14 09:33N 55°36' E 012°29'0 0.0
2014-Dec-14 08:33N 55°36' E 012°29'2 1.6
2014-Dec-14 07:33N 55°34' E 012°29'8 7.9
2014-Dec-14 06:33N 55°27' E 012°33'9 8.7
2014-Dec-14 05:33N 55°19' E 012°40'9 8.8
2014-Dec-14 04:33N 55°16' E 012°54'34 8.6
2014-Dec-14 00:33N 55°14' E 013°54'8 7.7
2014-Dec-13 23:33N 55°14' E 014°08'7 6.9
2014-Dec-13 22:33N 55°16' E 014°19'8 7.8
2014-Dec-13 21:33N 55°22' E 014°28'8 8.0
2014-Dec-13 20:33N 55°28' E 014°38'8 8.0
2014-Dec-13 19:33N 55°32' E 014°50'8 7.6
2014-Dec-13 18:33N 55°36' E 015°01'7 7.3
2014-Dec-13 17:33N 55°39' E 015°13'125 5.0
2014-Dec-12 16:26N 57°19' E 017°27'  

Dump ship's entire track history